sensor_id;sensor_type;location;lat;lon;timestamp;pressure;altitude;pressure_sealevel;temperature;humidity
74680;BME280;63211;48.548;2.704;2023-07-13T00:00:47;100954.97;;;23.97;54.82
74680;BME280;63211;48.548;2.704;2023-07-13T00:03:14;100958.03;;;24.01;55.23
74680;BME280;63211;48.548;2.704;2023-07-13T00:05:40;100961.88;;;23.99;55.56
74680;BME280;63211;48.548;2.704;2023-07-13T00:08:07;100965.44;;;24.00;55.02
74680;BME280;63211;48.548;2.704;2023-07-13T00:10:39;100969.53;;;23.97;55.32
74680;BME280;63211;48.548;2.704;2023-07-13T00:13:06;100976.69;;;23.98;55.11
74680;BME280;63211;48.548;2.704;2023-07-13T00:15:35;100958.47;;;23.92;55.23
74680;BME280;63211;48.548;2.704;2023-07-13T00:18:02;100973.94;;;23.98;55.14
74680;BME280;63211;48.548;2.704;2023-07-13T00:20:28;100961.75;;;23.89;55.31
74680;BME280;63211;48.548;2.704;2023-07-13T00:22:55;100972.78;;;23.94;54.84
74680;BME280;63211;48.548;2.704;2023-07-13T00:25:22;100969.22;;;23.94;54.92
74680;BME280;63211;48.548;2.704;2023-07-13T00:27:53;100976.13;;;23.96;54.86
74680;BME280;63211;48.548;2.704;2023-07-13T00:30:21;100966.47;;;23.94;54.85
74680;BME280;63211;48.548;2.704;2023-07-13T00:32:49;100979.97;;;23.95;54.96
74680;BME280;63211;48.548;2.704;2023-07-13T00:35:16;100986.56;;;23.94;55.43
74680;BME280;63211;48.548;2.704;2023-07-13T00:37:43;100979.38;;;23.93;55.16
74680;BME280;63211;48.548;2.704;2023-07-13T00:40:11;100988.13;;;23.90;54.90
74680;BME280;63211;48.548;2.704;2023-07-13T00:42:38;100985.13;;;23.92;54.91
74680;BME280;63211;48.548;2.704;2023-07-13T00:45:07;100985.69;;;23.89;54.78
74680;BME280;63211;48.548;2.704;2023-07-13T00:47:56;100990.09;;;23.90;54.65
74680;BME280;63211;48.548;2.704;2023-07-13T00:50:23;100985.09;;;23.87;55.01
74680;BME280;63211;48.548;2.704;2023-07-13T00:52:54;100994.75;;;23.89;55.32
74680;BME280;63211;48.548;2.704;2023-07-13T00:55:23;100990.34;;;23.88;54.66
74680;BME280;63211;48.548;2.704;2023-07-13T00:57:50;100922.38;;;23.45;55.17
74680;BME280;63211;48.548;2.704;2023-07-13T01:00:17;100989.19;;;23.84;55.18
74680;BME280;63211;48.548;2.704;2023-07-13T01:02:45;100988.94;;;23.86;54.67
74680;BME280;63211;48.548;2.704;2023-07-13T01:05:15;100994.44;;;23.86;55.16
74680;BME280;63211;48.548;2.704;2023-07-13T01:07:43;100993.84;;;23.84;54.67
74680;BME280;63211;48.548;2.704;2023-07-13T01:10:10;101002.09;;;23.84;55.10
74680;BME280;63211;48.548;2.704;2023-07-13T01:12:38;101004.84;;;23.84;55.04
74680;BME280;63211;48.548;2.704;2023-07-13T01:15:32;100995.53;;;23.85;54.98
74680;BME280;63211;48.548;2.704;2023-07-13T01:17:52;101004.84;;;23.84;55.06
74680;BME280;63211;48.548;2.704;2023-07-13T01:20:21;101016.09;;;23.82;55.17
74680;BME280;63211;48.548;2.704;2023-07-13T01:22:49;101008.34;;;23.79;55.18
74680;BME280;63211;48.548;2.704;2023-07-13T01:25:16;101009.19;;;23.80;55.17
74680;BME280;63211;48.548;2.704;2023-07-13T01:27:42;101014.44;;;23.81;55.04
74680;BME280;63211;48.548;2.704;2023-07-13T01:30:10;101012.53;;;23.82;55.11
74680;BME280;63211;48.548;2.704;2023-07-13T01:32:37;101009.69;;;23.77;54.81
74680;BME280;63211;48.548;2.704;2023-07-13T01:35:07;101008.28;;;23.74;55.33
74680;BME280;63211;48.548;2.704;2023-07-13T01:37:33;101015.78;;;23.79;55.20
74680;BME280;63211;48.548;2.704;2023-07-13T01:40:03;101004.69;;;23.74;54.67
74680;BME280;63211;48.548;2.704;2023-07-13T01:42:30;101009.19;;;23.80;54.88
74680;BME280;63211;48.548;2.704;2023-07-13T01:44:56;101012.19;;;23.78;54.79
74680;BME280;63211;48.548;2.704;2023-07-13T01:47:23;101022.94;;;23.80;54.70
74680;BME280;63211;48.548;2.704;2023-07-13T01:49:51;101015.78;;;23.79;54.75
74680;BME280;63211;48.548;2.704;2023-07-13T01:52:18;101014.34;;;23.76;54.49
74680;BME280;63211;48.548;2.704;2023-07-13T01:54:44;101024.28;;;23.77;55.06
74680;BME280;63211;48.548;2.704;2023-07-13T01:57:12;101020.44;;;23.78;54.47
74680;BME280;63211;48.548;2.704;2023-07-13T01:59:39;101016.84;;;23.78;55.03
74680;BME280;63211;48.548;2.704;2023-07-13T02:02:05;101017.09;;;23.76;54.55
74680;BME280;63211;48.548;2.704;2023-07-13T02:04:32;101013.53;;;23.76;54.96
74680;BME280;63211;48.548;2.704;2023-07-13T02:06:59;101007.94;;;23.71;54.65
74680;BME280;63211;48.548;2.704;2023-07-13T02:09:26;101011.59;;;23.76;54.58
74680;BME280;63211;48.548;2.704;2023-07-13T02:11:52;101015.44;;;23.75;54.82
74680;BME280;63211;48.548;2.704;2023-07-13T02:14:20;101012.94;;;23.74;55.06
74680;BME280;63211;48.548;2.704;2023-07-13T02:16:47;101015.69;;;23.74;55.07
74680;BME280;63211;48.548;2.704;2023-07-13T02:19:14;101014.03;;;23.73;54.63
74680;BME280;63211;48.548;2.704;2023-07-13T02:21:40;101015.69;;;23.74;54.74
74680;BME280;63211;48.548;2.704;2023-07-13T02:24:07;101014.53;;;23.70;54.54
74680;BME280;63211;48.548;2.704;2023-07-13T02:26:34;101009.56;;;23.67;54.65
74680;BME280;63211;48.548;2.704;2023-07-13T02:29:01;101019.53;;;23.73;54.59
74680;BME280;63211;48.548;2.704;2023-07-13T02:31:29;101023.63;;;23.70;54.85
74680;BME280;63211;48.548;2.704;2023-07-13T02:33:55;101016.19;;;23.71;54.56
74680;BME280;63211;48.548;2.704;2023-07-13T02:36:22;101020.31;;;23.68;54.59
74680;BME280;63211;48.548;2.704;2023-07-13T02:38:49;101017.81;;;23.67;54.85
74680;BME280;63211;48.548;2.704;2023-07-13T02:41:16;101008.47;;;23.68;54.68
74680;BME280;63211;48.548;2.704;2023-07-13T02:43:43;101013.72;;;23.69;54.35
74680;BME280;63211;48.548;2.704;2023-07-13T02:46:09;101019.72;;;23.66;54.60
74680;BME280;63211;48.548;2.704;2023-07-13T02:48:38;101010.66;;;23.66;54.61
74680;BME280;63211;48.548;2.704;2023-07-13T02:51:06;101027.16;;;23.66;54.82
74680;BME280;63211;48.548;2.704;2023-07-13T02:53:32;101024.16;;;23.67;54.91
74680;BME280;63211;48.548;2.704;2023-07-13T02:56:01;101013.97;;;23.68;54.31
74680;BME280;63211;48.548;2.704;2023-07-13T02:58:27;101024.16;;;23.67;54.00
74680;BME280;63211;48.548;2.704;2023-07-13T03:00:55;101018.66;;;23.67;54.20
74680;BME280;63211;48.548;2.704;2023-07-13T03:03:23;101020.56;;;23.67;54.58
74680;BME280;63211;48.548;2.704;2023-07-13T03:05:58;101026.91;;;23.67;54.81
74680;BME280;63211;48.548;2.704;2023-07-13T03:08:26;101018.56;;;23.62;54.55
74680;BME280;63211;48.548;2.704;2023-07-13T03:10:59;101027.41;;;23.64;54.46
74680;BME280;63211;48.548;2.704;2023-07-13T03:13:25;101029.31;;;23.63;54.80
74680;BME280;63211;48.548;2.704;2023-07-13T03:15:52;101029.31;;;23.63;54.69
74680;BME280;63211;48.548;2.704;2023-07-13T03:18:18;101026.81;;;23.62;54.33
74680;BME280;63211;48.548;2.704;2023-07-13T03:20:45;101028.47;;;23.63;54.69
74680;BME280;63211;48.548;2.704;2023-07-13T03:23:13;101030.41;;;23.62;54.32
74680;BME280;63211;48.548;2.704;2023-07-13T03:25:39;101035.06;;;23.62;54.30
74680;BME280;63211;48.548;2.704;2023-07-13T03:28:06;101037.22;;;23.60;54.73
74680;BME280;63211;48.548;2.704;2023-07-13T03:30:33;101022.56;;;23.54;54.58
74680;BME280;63211;48.548;2.704;2023-07-13T03:32:59;101038.06;;;23.60;54.61
74680;BME280;63211;48.548;2.704;2023-07-13T03:35:26;101045.22;;;23.61;54.63
74680;BME280;63211;48.548;2.704;2023-07-13T03:37:52;101049.88;;;23.61;54.45
74680;BME280;63211;48.548;2.704;2023-07-13T03:40:20;101046.31;;;23.60;54.68
74680;BME280;63211;48.548;2.704;2023-07-13T03:42:47;101040.13;;;23.53;54.12
74680;BME280;63211;48.548;2.704;2023-07-13T03:45:13;101058.38;;;23.59;54.70
74680;BME280;63211;48.548;2.704;2023-07-13T03:47:40;101055.06;;;23.57;54.23
74680;BME280;63211;48.548;2.704;2023-07-13T03:50:07;101053.38;;;23.56;54.25
74680;BME280;63211;48.548;2.704;2023-07-13T03:52:34;101055.31;;;23.56;54.49
74680;BME280;63211;48.548;2.704;2023-07-13T03:55:01;101053.13;;;23.58;54.11
74680;BME280;63211;48.548;2.704;2023-07-13T03:57:28;101058.03;;;23.56;54.04
74680;BME280;63211;48.548;2.704;2023-07-13T03:59:56;101062.47;;;23.57;54.38
74680;BME280;63211;48.548;2.704;2023-07-13T04:02:22;101063.78;;;23.54;54.23
74680;BME280;63211;48.548;2.704;2023-07-13T04:04:49;101077.88;;;23.58;54.67
74680;BME280;63211;48.548;2.704;2023-07-13T04:07:15;101077.03;;;23.57;53.96
74680;BME280;63211;48.548;2.704;2023-07-13T04:09:42;101082.19;;;23.54;54.49
74680;BME280;63211;48.548;2.704;2023-07-13T04:12:09;101077.16;;;23.51;54.15
74680;BME280;63211;48.548;2.704;2023-07-13T04:14:37;101079.22;;;23.55;54.44
74680;BME280;63211;48.548;2.704;2023-07-13T04:17:04;101073.97;;;23.54;54.52
74680;BME280;63211;48.548;2.704;2023-07-13T04:19:31;101067.53;;;23.48;54.58
74680;BME280;63211;48.548;2.704;2023-07-13T04:21:57;101076.72;;;23.54;54.09
74680;BME280;63211;48.548;2.704;2023-07-13T04:24:24;101085.78;;;23.54;54.01
74680;BME280;63211;48.548;2.704;2023-07-13T04:26:51;101075.19;;;23.46;54.45
74680;BME280;63211;48.548;2.704;2023-07-13T04:29:17;101095.03;;;23.48;54.18
74680;BME280;63211;48.548;2.704;2023-07-13T04:31:46;101098.09;;;23.52;54.15
74680;BME280;63211;48.548;2.704;2023-07-13T04:34:13;101101.06;;;23.50;54.28
74680;BME280;63211;48.548;2.704;2023-07-13T04:36:39;101104.66;;;23.51;54.22
74680;BME280;63211;48.548;2.704;2023-07-13T04:39:06;101097.25;;;23.51;54.55
74680;BME280;63211;48.548;2.704;2023-07-13T04:41:33;101092.81;;;23.50;54.42
74680;BME280;63211;48.548;2.704;2023-07-13T04:44:00;101094.75;;;23.50;54.07
74680;BME280;63211;48.548;2.704;2023-07-13T04:46:28;101096.66;;;23.49;54.21
74680;BME280;63211;48.548;2.704;2023-07-13T04:48:56;101100.53;;;23.48;54.60
74680;BME280;63211;48.548;2.704;2023-07-13T04:51:24;101108.75;;;23.48;54.46
74680;BME280;63211;48.548;2.704;2023-07-13T04:53:51;101099.34;;;23.44;54.44
74680;BME280;63211;48.548;2.704;2023-07-13T04:56:18;101110.09;;;23.46;54.04
74680;BME280;63211;48.548;2.704;2023-07-13T04:58:45;101101.75;;;23.41;54.61
74680;BME280;63211;48.548;2.704;2023-07-13T05:01:11;101110.69;;;23.48;54.61
74680;BME280;63211;48.548;2.704;2023-07-13T05:03:39;101104.50;;;23.41;54.65
74680;BME280;63211;48.548;2.704;2023-07-13T05:06:08;101109.84;;;23.47;54.63
74680;BME280;63211;48.548;2.704;2023-07-13T05:08:36;101112.59;;;23.47;54.54
74680;BME280;63211;48.548;2.704;2023-07-13T05:11:04;101107.25;;;23.41;54.56
74680;BME280;63211;48.548;2.704;2023-07-13T05:13:31;101114.16;;;23.43;54.59
74680;BME280;63211;48.548;2.704;2023-07-13T05:15:59;101115.25;;;23.42;54.23
74680;BME280;63211;48.548;2.704;2023-07-13T05:18:26;101124.09;;;23.44;54.55
74680;BME280;63211;48.548;2.704;2023-07-13T05:21:00;101106.41;;;23.40;54.00
74680;BME280;63211;48.548;2.704;2023-07-13T05:23:29;101103.09;;;23.38;54.43
74680;BME280;63211;48.548;2.704;2023-07-13T05:25:56;101103.66;;;23.40;54.01
74680;BME280;63211;48.548;2.704;2023-07-13T05:28:23;101104.50;;;23.41;54.31
74680;BME280;63211;48.548;2.704;2023-07-13T05:30:50;101102.75;;;23.35;54.36
74680;BME280;63211;48.548;2.704;2023-07-13T05:33:17;101112.75;;;23.41;54.47
74680;BME280;63211;48.548;2.704;2023-07-13T05:35:44;101115.50;;;23.41;54.83
74680;BME280;63211;48.548;2.704;2023-07-13T05:38:10;101108.34;;;23.40;54.30
74680;BME280;63211;48.548;2.704;2023-07-13T05:40:38;101100.81;;;23.35;54.13
74680;BME280;63211;48.548;2.704;2023-07-13T05:43:05;101084.78;;;23.27;54.71
74680;BME280;63211;48.548;2.704;2023-07-13T05:45:32;101114.66;;;23.40;54.17
74680;BME280;63211;48.548;2.704;2023-07-13T05:47:58;101105.59;;;23.40;54.07
74680;BME280;63211;48.548;2.704;2023-07-13T05:50:25;101119.31;;;23.40;54.16
74680;BME280;63211;48.548;2.704;2023-07-13T05:52:52;101126.72;;;23.39;53.98
74680;BME280;63211;48.548;2.704;2023-07-13T05:55:19;101130.81;;;23.37;54.11
74680;BME280;63211;48.548;2.704;2023-07-13T05:57:46;101124.13;;;23.33;53.93
74680;BME280;63211;48.548;2.704;2023-07-13T06:00:14;101129.97;;;23.36;54.41
74680;BME280;63211;48.548;2.704;2023-07-13T06:02:41;101111.31;;;23.21;54.61
74680;BME280;63211;48.548;2.704;2023-07-13T06:05:08;101132.72;;;23.36;54.14
74680;BME280;63211;48.548;2.704;2023-07-13T06:07:35;101131.63;;;23.37;54.00
74680;BME280;63211;48.548;2.704;2023-07-13T06:10:01;101138.22;;;23.36;54.40
74680;BME280;63211;48.548;2.704;2023-07-13T06:12:28;101141.78;;;23.37;54.01
74680;BME280;63211;48.548;2.704;2023-07-13T06:14:56;101155.28;;;23.38;54.11
74680;BME280;63211;48.548;2.704;2023-07-13T06:17:22;101144.78;;;23.35;54.13
74680;BME280;63211;48.548;2.704;2023-07-13T06:19:49;101147.53;;;23.35;54.06
74680;BME280;63211;48.548;2.704;2023-07-13T06:22:16;101141.69;;;23.31;54.41
74680;BME280;63211;48.548;2.704;2023-07-13T06:24:42;101141.94;;;23.30;54.46
74680;BME280;63211;48.548;2.704;2023-07-13T06:27:09;101149.44;;;23.35;54.10
74680;BME280;63211;48.548;2.704;2023-07-13T06:29:35;101148.63;;;23.34;54.40
74680;BME280;63211;48.548;2.704;2023-07-13T06:32:04;101143.63;;;23.31;54.02
74680;BME280;63211;48.548;2.704;2023-07-13T06:34:31;101157.94;;;23.33;54.48
74680;BME280;63211;48.548;2.704;2023-07-13T06:36:57;101162.13;;;23.36;54.54
74680;BME280;63211;48.548;2.704;2023-07-13T06:39:24;101163.19;;;23.35;53.91
74680;BME280;63211;48.548;2.704;2023-07-13T06:41:51;101162.00;;;23.30;54.02
74680;BME280;63211;48.548;2.704;2023-07-13T06:44:17;101158.78;;;23.34;54.46
74680;BME280;63211;48.548;2.704;2023-07-13T06:46:44;101157.34;;;23.31;54.30
74680;BME280;63211;48.548;2.704;2023-07-13T06:49:12;101164.28;;;23.34;54.07
74680;BME280;63211;48.548;2.704;2023-07-13T06:51:38;101145.13;;;23.22;54.40
74680;BME280;63211;48.548;2.704;2023-07-13T06:54:05;101158.19;;;23.31;53.83
74680;BME280;63211;48.548;2.704;2023-07-13T06:56:31;101163.69;;;23.31;54.24
74680;BME280;63211;48.548;2.704;2023-07-13T06:58:58;101171.94;;;23.31;53.92
74680;BME280;63211;48.548;2.704;2023-07-13T07:01:25;101172.75;;;23.32;54.45
74680;BME280;63211;48.548;2.704;2023-07-13T07:03:51;101168.09;;;23.33;54.33
74680;BME280;63211;48.548;2.704;2023-07-13T07:06:21;101165.34;;;23.33;53.97
74680;BME280;63211;48.548;2.704;2023-07-13T07:08:49;101171.09;;;23.31;53.94
74680;BME280;63211;48.548;2.704;2023-07-13T07:11:18;101169.41;;;23.30;54.51
74680;BME280;63211;48.548;2.704;2023-07-13T07:13:45;101173.84;;;23.31;54.06
74680;BME280;63211;48.548;2.704;2023-07-13T07:16:12;101166.66;;;23.30;54.64
74680;BME280;63211;48.548;2.704;2023-07-13T07:18:38;101169.41;;;23.30;54.11
74680;BME280;63211;48.548;2.704;2023-07-13T07:21:05;101159.19;;;23.25;54.22
74680;BME280;63211;48.548;2.704;2023-07-13T07:23:33;101166.44;;;23.31;54.34
74680;BME280;63211;48.548;2.704;2023-07-13T07:26:00;101173.34;;;23.34;53.94
74680;BME280;63211;48.548;2.704;2023-07-13T07:28:26;101173.34;;;23.34;54.06
74680;BME280;63211;48.548;2.704;2023-07-13T07:30:54;101165.59;;;23.31;54.18
74680;BME280;63211;48.548;2.704;2023-07-13T07:33:21;101176.94;;;23.35;54.39
74680;BME280;63211;48.548;2.704;2023-07-13T07:35:48;101175.03;;;23.35;53.90
74680;BME280;63211;48.548;2.704;2023-07-13T07:38:15;101176.59;;;23.31;54.40
74680;BME280;63211;48.548;2.704;2023-07-13T07:40:43;101184.34;;;23.34;54.59
74680;BME280;63211;48.548;2.704;2023-07-13T07:43:11;101172.16;;;23.30;54.28
74680;BME280;63211;48.548;2.704;2023-07-13T07:45:38;101179.81;;;23.28;54.01
74680;BME280;63211;48.548;2.704;2023-07-13T07:48:06;101189.00;;;23.34;53.64
74680;BME280;63211;48.548;2.704;2023-07-13T07:50:33;101189.84;;;23.34;54.59
74680;BME280;63211;48.548;2.704;2023-07-13T07:52:59;101181.34;;;23.36;54.11
74680;BME280;63211;48.548;2.704;2023-07-13T07:55:27;101187.69;;;23.36;54.43
74680;BME280;63211;48.548;2.704;2023-07-13T07:57:56;101193.16;;;23.36;54.58
74680;BME280;63211;48.548;2.704;2023-07-13T08:00:23;101191.25;;;23.37;54.84
74680;BME280;63211;48.548;2.704;2023-07-13T08:02:49;101186.34;;;23.39;54.19
74680;BME280;63211;48.548;2.704;2023-07-13T08:05:16;101192.69;;;23.39;54.67
74680;BME280;63211;48.548;2.704;2023-07-13T08:07:43;101202.00;;;23.38;54.43
74680;BME280;63211;48.548;2.704;2023-07-13T08:10:10;101189.69;;;23.41;54.38
74680;BME280;63211;48.548;2.704;2023-07-13T08:12:37;101177.75;;;23.35;54.38
74680;BME280;63211;48.548;2.704;2023-07-13T08:15:08;101187.19;;;23.39;54.34
74680;BME280;63211;48.548;2.704;2023-07-13T08:17:35;101173.00;;;23.30;54.80
74680;BME280;63211;48.548;2.704;2023-07-13T08:20:02;101199.34;;;23.43;54.79
74680;BME280;63211;48.548;2.704;2023-07-13T08:22:29;101203.44;;;23.41;55.06
74680;BME280;63211;48.548;2.704;2023-07-13T08:24:56;101173.25;;;23.29;54.83
74680;BME280;63211;48.548;2.704;2023-07-13T08:27:23;101193.63;;;23.45;54.49
74680;BME280;63211;48.548;2.704;2023-07-13T08:29:50;101198.28;;;23.44;54.93
74680;BME280;63211;48.548;2.704;2023-07-13T08:32:19;101196.38;;;23.45;54.73
74680;BME280;63211;48.548;2.704;2023-07-13T08:34:46;101194.44;;;23.45;54.28
74680;BME280;63211;48.548;2.704;2023-07-13T08:37:14;101189.44;;;23.42;54.30
74680;BME280;63211;48.548;2.704;2023-07-13T08:39:41;101195.88;;;23.48;54.42
74680;BME280;63211;48.548;2.704;2023-07-13T08:45:02;101197.78;;;23.47;54.68
74680;BME280;63211;48.548;2.704;2023-07-13T08:47:34;101201.09;;;23.49;54.76
74680;BME280;63211;48.548;2.704;2023-07-13T08:50:02;101190.09;;;23.49;54.32
74680;BME280;63211;48.548;2.704;2023-07-13T08:52:32;101191.78;;;23.50;54.13
74680;BME280;63211;48.548;2.704;2023-07-13T08:55:06;101204.44;;;23.51;54.71
74680;BME280;63211;48.548;2.704;2023-07-13T08:57:36;101209.72;;;23.53;54.86
74680;BME280;63211;48.548;2.704;2023-07-13T09:00:04;101202.56;;;23.52;54.79
74680;BME280;63211;48.548;2.704;2023-07-13T09:02:42;101197.06;;;23.52;54.33
74680;BME280;63211;48.548;2.704;2023-07-13T09:05:14;101205.88;;;23.54;54.36
74680;BME280;63211;48.548;2.704;2023-07-13T09:07:58;101206.97;;;23.53;54.29
74680;BME280;63211;48.548;2.704;2023-07-13T09:10:28;101208.38;;;23.55;54.76
74680;BME280;63211;48.548;2.704;2023-07-13T09:13:09;101206.97;;;23.53;54.18
74680;BME280;63211;48.548;2.704;2023-07-13T09:15:41;101200.97;;;23.56;54.44
74680;BME280;63211;48.548;2.704;2023-07-13T09:18:13;101192.00;;;23.49;54.38
74680;BME280;63211;48.548;2.704;2023-07-13T09:20:46;101190.47;;;23.53;54.83
74680;BME280;63211;48.548;2.704;2023-07-13T09:23:17;101193.69;;;23.50;54.56
74680;BME280;63211;48.548;2.704;2023-07-13T09:25:45;101203.00;;;23.60;54.62
74680;BME280;63211;48.548;2.704;2023-07-13T09:28:19;101178.22;;;23.44;54.69
74680;BME280;63211;48.548;2.704;2023-07-13T09:30:52;101207.66;;;23.60;54.25
74680;BME280;63211;48.548;2.704;2023-07-13T09:33:23;101210.16;;;23.61;54.57
74680;BME280;63211;48.548;2.704;2023-07-13T09:35:54;101206.31;;;23.62;54.08
74680;BME280;63211;48.548;2.704;2023-07-13T09:38:24;101206.31;;;23.62;54.37
74680;BME280;63211;48.548;2.704;2023-07-13T09:40:59;101207.16;;;23.63;54.37
74680;BME280;63211;48.548;2.704;2023-07-13T09:43:27;101215.16;;;23.64;54.34
74680;BME280;63211;48.548;2.704;2023-07-13T09:45:54;101208.84;;;23.64;54.45
74680;BME280;63211;48.548;2.704;2023-07-13T09:48:21;101209.91;;;23.63;54.34
74680;BME280;63211;48.548;2.704;2023-07-13T09:50:54;101206.91;;;23.64;54.43
74680;BME280;63211;48.548;2.704;2023-07-13T09:53:21;101206.09;;;23.64;54.67
74680;BME280;63211;48.548;2.704;2023-07-13T09:55:49;101200.81;;;23.62;54.51
74680;BME280;63211;48.548;2.704;2023-07-13T09:58:17;101196.16;;;23.63;54.38
74680;BME280;63211;48.548;2.704;2023-07-13T10:00:56;101197.72;;;23.59;54.48
74680;BME280;63211;48.548;2.704;2023-07-13T10:03:26;101207.16;;;23.63;54.78
74680;BME280;63211;48.548;2.704;2023-07-13T10:06:03;101213.00;;;23.67;54.76
74680;BME280;63211;48.548;2.704;2023-07-13T10:08:35;101200.34;;;23.66;54.33
74680;BME280;63211;48.548;2.704;2023-07-13T10:11:09;101216.81;;;23.66;54.52
74680;BME280;63211;48.548;2.704;2023-07-13T10:13:40;101210.25;;;23.67;54.76
74680;BME280;63211;48.548;2.704;2023-07-13T10:16:08;101217.41;;;23.68;54.48
74680;BME280;63211;48.548;2.704;2023-07-13T10:18:39;101200.63;;;23.52;54.36
74680;BME280;63211;48.548;2.704;2023-07-13T10:21:15;101219.56;;;23.66;54.65
74680;BME280;63211;48.548;2.704;2023-07-13T10:23:45;101218.25;;;23.68;54.57
74680;BME280;63211;48.548;2.704;2023-07-13T10:26:16;101218.25;;;23.68;54.25
74680;BME280;63211;48.548;2.704;2023-07-13T10:28:47;101225.06;;;23.66;54.47
74680;BME280;63211;48.548;2.704;2023-07-13T10:31:19;101223.16;;;23.66;54.24
74680;BME280;63211;48.548;2.704;2023-07-13T10:33:46;101227.34;;;23.69;54.90
74680;BME280;63211;48.548;2.704;2023-07-13T10:36:27;101222.91;;;23.68;54.78
74680;BME280;63211;48.548;2.704;2023-07-13T10:38:57;101227.59;;;23.67;54.59
74680;BME280;63211;48.548;2.704;2023-07-13T10:41:26;101226.50;;;23.68;54.51
74680;BME280;63211;48.548;2.704;2023-07-13T10:43:55;101228.97;;;23.70;54.45
74680;BME280;63211;48.548;2.704;2023-07-13T10:46:25;101220.16;;;23.68;54.57
74680;BME280;63211;48.548;2.704;2023-07-13T10:48:57;101226.22;;;23.70;54.25
74680;BME280;63211;48.548;2.704;2023-07-13T10:51:27;101224.59;;;23.69;54.90
74680;BME280;63211;48.548;2.704;2023-07-13T10:54:16;101221.84;;;23.69;54.39
74680;BME280;63211;48.548;2.704;2023-07-13T10:56:44;101226.22;;;23.70;54.54
74680;BME280;63211;48.548;2.704;2023-07-13T10:59:15;101228.16;;;23.69;53.98
74680;BME280;63211;48.548;2.704;2023-07-13T11:01:54;101215.66;;;23.61;54.61
74680;BME280;63211;48.548;2.704;2023-07-13T11:04:22;101208.84;;;23.64;54.27
74680;BME280;63211;48.548;2.704;2023-07-13T11:06:56;101219.09;;;23.69;53.94
74680;BME280;63211;48.548;2.704;2023-07-13T11:09:36;101217.97;;;23.70;54.38
74680;BME280;63211;48.548;2.704;2023-07-13T11:12:09;101223.75;;;23.68;54.06
74680;BME280;63211;48.548;2.704;2023-07-13T11:14:43;101236.41;;;23.69;54.31
74680;BME280;63211;48.548;2.704;2023-07-13T11:17:33;101227.34;;;23.69;55.02
74680;BME280;63211;48.548;2.704;2023-07-13T11:23:17;101220.47;;;23.71;54.46
74680;BME280;63211;48.548;2.704;2023-07-13T11:25:44;101205.50;;;23.62;54.41
74680;BME280;63211;48.548;2.704;2023-07-13T11:28:23;101215.50;;;23.68;54.62
74680;BME280;63211;48.548;2.704;2023-07-13T11:31:04;101217.16;;;23.69;54.96
74680;BME280;63211;48.548;2.704;2023-07-13T11:33:53;101216.34;;;23.69;54.98
74680;BME280;63211;48.548;2.704;2023-07-13T11:36:22;101211.91;;;23.68;54.31
74680;BME280;63211;48.548;2.704;2023-07-13T11:38:58;101217.97;;;23.70;54.17
74680;BME280;63211;48.548;2.704;2023-07-13T11:41:30;101206.41;;;23.68;54.09
74680;BME280;63211;48.548;2.704;2023-07-13T11:44:06;101201.16;;;23.66;54.52
74680;BME280;63211;48.548;2.704;2023-07-13T11:46:33;101197.94;;;23.69;54.64
74680;BME280;63211;48.548;2.704;2023-07-13T11:48:59;101195.31;;;23.62;54.82
74680;BME280;63211;48.548;2.704;2023-07-13T11:51:29;101201.47;;;23.70;54.60
74680;BME280;63211;48.548;2.704;2023-07-13T11:54:02;101197.66;;;23.71;54.60
74680;BME280;63211;48.548;2.704;2023-07-13T11:56:30;101185.41;;;23.61;54.37
74680;BME280;63211;48.548;2.704;2023-07-13T11:58:59;101208.66;;;23.71;54.71
74680;BME280;63211;48.548;2.704;2023-07-13T12:01:31;101202.31;;;23.70;54.01
74680;BME280;63211;48.548;2.704;2023-07-13T12:04:00;101200.41;;;23.71;54.64
74680;BME280;63211;48.548;2.704;2023-07-13T12:06:29;101189.94;;;23.68;54.87
74680;BME280;63211;48.548;2.704;2023-07-13T12:08:58;101194.91;;;23.71;54.30
74680;BME280;63211;48.548;2.704;2023-07-13T12:11:25;101188.84;;;23.69;54.15
74680;BME280;63211;48.548;2.704;2023-07-13T12:13:52;101178.34;;;23.66;54.51
74680;BME280;63211;48.548;2.704;2023-07-13T12:16:25;101182.50;;;23.68;54.03
74680;BME280;63211;48.548;2.704;2023-07-13T12:18:53;101183.25;;;23.63;54.17
74680;BME280;63211;48.548;2.704;2023-07-13T12:21:27;101194.06;;;23.70;54.67
74680;BME280;63211;48.548;2.704;2023-07-13T12:23:55;101186.09;;;23.69;54.91
74680;BME280;63211;48.548;2.704;2023-07-13T12:26:23;101195.97;;;23.70;54.60
74680;BME280;63211;48.548;2.704;2023-07-13T12:28:52;101185.81;;;23.70;54.92
74680;BME280;63211;48.548;2.704;2023-07-13T12:31:29;101186.94;;;23.69;54.34
74680;BME280;63211;48.548;2.704;2023-07-13T12:33:57;101191.91;;;23.72;54.26
74680;BME280;63211;48.548;2.704;2023-07-13T12:36:24;101191.91;;;23.72;54.95
74680;BME280;63211;48.548;2.704;2023-07-13T12:38:51;101180.06;;;23.72;54.64
74680;BME280;63211;48.548;2.704;2023-07-13T12:41:18;101187.47;;;23.71;54.22
74680;BME280;63211;48.548;2.704;2023-07-13T12:43:47;101173.97;;;23.70;54.47
74680;BME280;63211;48.548;2.704;2023-07-13T12:46:18;101173.44;;;23.68;54.55
74680;BME280;63211;48.548;2.704;2023-07-13T12:48:49;101173.97;;;23.70;54.33
74680;BME280;63211;48.548;2.704;2023-07-13T12:51:15;101168.25;;;23.71;54.55
74680;BME280;63211;48.548;2.704;2023-07-13T12:53:47;101173.50;;;23.73;54.04
74680;BME280;63211;48.548;2.704;2023-07-13T12:56:18;101169.91;;;23.72;54.63
74680;BME280;63211;48.548;2.704;2023-07-13T12:58:48;101167.16;;;23.72;54.02
74680;BME280;63211;48.548;2.704;2023-07-13T13:01:20;101175.66;;;23.71;54.73
74680;BME280;63211;48.548;2.704;2023-07-13T13:03:49;101172.66;;;23.72;54.30